NDF25C OEMA-OBBI
Flight info
| Callsign | NDF25C |
|---|---|
| Flight time | N/A |
| Altitude | 39000 |
| Route | MEDRO1K MEDRO M872 KIA N687 KFA M691 LADNA LADNA1 |
| Aircraft | A339/H-SADE1E2E3GHIJ3J5M1P2RWXY/LB2D1 |
Departure
| Time | 2026-04-21 19:28 |
|---|---|
| Airport | Prince Mohammad Bin Abdulaziz Airport (OEMA) |
Arrival
| Time | N/A |
|---|---|
| Airport | Bahrain International Airport (OBBI) |
| Time | Latitude | Longitude | Altitude | Speed | Heading |
|---|---|---|---|---|---|
| 2026-04-21 18:56 | 24.55250 | 39.71331 | 2099 ft | 0 kts | 79° |
| 2026-04-21 19:17 | 24.55247 | 39.71317 | 2099 ft | 4 kts | 83° |
| 2026-04-21 19:18 | 24.55245 | 39.71288 | 2099 ft | 4 kts | 98° |
| 2026-04-21 19:18 | 24.55250 | 39.71260 | 2100 ft | 4 kts | 117° |
| 2026-04-21 19:18 | 24.55263 | 39.71236 | 2101 ft | 4 kts | 142° |
| 2026-04-21 19:18 | 24.55283 | 39.71221 | 2101 ft | 3 kts | 167° |
| 2026-04-21 19:19 | 24.55286 | 39.71221 | 2101 ft | 0 kts | 168° |
| 2026-04-21 19:21 | 24.55284 | 39.71221 | 2101 ft | 1 kts | 168° |
| 2026-04-21 19:22 | 24.55262 | 39.71226 | 2101 ft | 5 kts | 168° |
| 2026-04-21 19:22 | 24.55213 | 39.71237 | 2098 ft | 9 kts | 168° |
| 2026-04-21 19:22 | 24.55140 | 39.71254 | 2097 ft | 12 kts | 169° |
| 2026-04-21 19:22 | 24.55069 | 39.71268 | 2095 ft | 6 kts | 170° |
| 2026-04-21 19:23 | 24.55027 | 39.71276 | 2094 ft | 8 kts | 170° |
| 2026-04-21 19:23 | 24.54963 | 39.71289 | 2093 ft | 11 kts | 168° |
| 2026-04-21 19:23 | 24.54874 | 39.71296 | 2091 ft | 11 kts | 201° |
| 2026-04-21 19:23 | 24.54850 | 39.71234 | 2091 ft | 10 kts | 257° |
| 2026-04-21 19:24 | 24.54833 | 39.71154 | 2090 ft | 11 kts | 247° |
| 2026-04-21 19:24 | 24.54770 | 39.71137 | 2089 ft | 10 kts | 174° |
| 2026-04-21 19:24 | 24.54690 | 39.71151 | 2087 ft | 13 kts | 168° |
| 2026-04-21 19:24 | 24.54588 | 39.71174 | 2084 ft | 16 kts | 168° |
| 2026-04-21 19:25 | 24.54468 | 39.71200 | 2082 ft | 19 kts | 169° |
| 2026-04-21 19:25 | 24.54330 | 39.71229 | 2078 ft | 21 kts | 169° |
| 2026-04-21 19:25 | 24.54188 | 39.71259 | 2075 ft | 20 kts | 169° |
| 2026-04-21 19:25 | 24.54043 | 39.71290 | 2074 ft | 22 kts | 169° |
| 2026-04-21 19:26 | 24.53884 | 39.71322 | 2073 ft | 22 kts | 174° |
| 2026-04-21 19:26 | 24.53839 | 39.71287 | 2072 ft | 0 kts | 247° |
| 2026-04-21 19:26 | 24.53838 | 39.71283 | 2072 ft | 2 kts | 247° |
| 2026-04-21 19:27 | 24.53830 | 39.71259 | 2072 ft | 5 kts | 251° |
| 2026-04-21 19:27 | 24.53818 | 39.71200 | 2072 ft | 11 kts | 261° |
| 2026-04-21 19:27 | 24.53854 | 39.71138 | 2072 ft | 9 kts | 339° |
| 2026-04-21 19:27 | 24.53997 | 39.71106 | 2070 ft | 50 kts | 349° |
| 2026-04-21 19:28 | 24.54654 | 39.70967 | 2088 ft | 138 kts | 349° |
| 2026-04-21 19:28 | 24.55791 | 39.70724 | 2367 ft | 180 kts | 349° |
| 2026-04-21 19:28 | 24.57023 | 39.70465 | 3346 ft | 181 kts | 349° |
| 2026-04-21 19:28 | 24.58279 | 39.70236 | 4190 ft | 189 kts | 351° |
| 2026-04-21 19:29 | 24.59628 | 39.70045 | 4769 ft | 205 kts | 353° |
| 2026-04-21 19:29 | 24.61108 | 39.69827 | 5259 ft | 225 kts | 349° |
| 2026-04-21 19:29 | 24.62707 | 39.69479 | 5711 ft | 244 kts | 346° |
| 2026-04-21 19:29 | 24.64417 | 39.69032 | 6134 ft | 261 kts | 345° |
| 2026-04-21 19:30 | 24.66239 | 39.68553 | 6529 ft | 277 kts | 345° |
| 2026-04-21 19:30 | 24.68163 | 39.68053 | 6937 ft | 291 kts | 346° |
| 2026-04-21 19:30 | 24.70186 | 39.67588 | 7380 ft | 303 kts | 347° |
| 2026-04-21 19:30 | 24.72307 | 39.67176 | 7815 ft | 315 kts | 349° |
| 2026-04-21 19:31 | 24.74506 | 39.66826 | 8363 ft | 322 kts | 350° |
| 2026-04-21 19:31 | 24.76787 | 39.66427 | 9026 ft | 325 kts | 348° |
| 2026-04-21 19:31 | 24.78966 | 39.66055 | 9586 ft | 323 kts | 349° |
| 2026-04-21 19:31 | 24.81123 | 39.65853 | 9853 ft | 302 kts | 359° |
| 2026-04-21 19:32 | 24.83207 | 39.66226 | 10043 ft | 308 kts | 18° |
| 2026-04-21 19:32 | 24.85104 | 39.67448 | 10270 ft | 328 kts | 41° |
| 2026-04-21 19:32 | 24.86524 | 39.69483 | 10502 ft | 345 kts | 63° |
| 2026-04-21 19:32 | 24.87222 | 39.72059 | 10722 ft | 358 kts | 85° |
| 2026-04-21 19:33 | 24.87216 | 39.73870 | 10866 ft | 359 kts | 99° |
| 2026-04-21 19:33 | 24.86075 | 39.77243 | 11159 ft | 356 kts | 127° |
| 2026-04-21 19:33 | 24.84493 | 39.79329 | 11358 ft | 355 kts | 135° |
| 2026-04-21 19:33 | 24.82880 | 39.81401 | 11582 ft | 358 kts | 131° |
| 2026-04-21 19:34 | 24.81435 | 39.83654 | 11812 ft | 361 kts | 125° |
| 2026-04-21 19:34 | 24.80157 | 39.86051 | 12012 ft | 364 kts | 121° |
| 2026-04-21 19:34 | 24.78974 | 39.88529 | 12216 ft | 368 kts | 119° |
| 2026-04-21 19:34 | 24.77826 | 39.91065 | 12643 ft | 372 kts | 118° |
| 2026-04-21 19:35 | 24.76685 | 39.93623 | 13274 ft | 374 kts | 118° |
| 2026-04-21 19:35 | 24.74348 | 39.98833 | 14268 ft | 384 kts | 119° |
| 2026-04-21 19:35 | 24.73154 | 40.01476 | 14745 ft | 388 kts | 119° |
| 2026-04-21 19:36 | 24.71941 | 40.04154 | 15162 ft | 394 kts | 119° |
| 2026-04-21 19:36 | 24.70719 | 40.06853 | 15733 ft | 395 kts | 120° |
| 2026-04-21 19:36 | 24.69484 | 40.09573 | 16157 ft | 400 kts | 120° |
| 2026-04-21 19:36 | 24.68232 | 40.12328 | 16619 ft | 404 kts | 120° |
| 2026-04-21 19:37 | 24.66973 | 40.15100 | 17086 ft | 407 kts | 120° |
| 2026-04-21 19:37 | 24.65697 | 40.17906 | 17530 ft | 412 kts | 120° |
| 2026-04-21 19:37 | 24.64409 | 40.20736 | 17987 ft | 416 kts | 120° |
| 2026-04-21 19:37 | 24.63109 | 40.23592 | 18409 ft | 419 kts | 120° |
| 2026-04-21 19:38 | 24.61796 | 40.26474 | 18853 ft | 421 kts | 121° |
| 2026-04-21 19:38 | 24.60498 | 40.29322 | 19291 ft | 424 kts | 121° |
| 2026-04-21 19:38 | 24.59598 | 40.31292 | 19579 ft | 426 kts | 121° |
| 2026-04-21 19:38 | 24.57824 | 40.35176 | 20161 ft | 431 kts | 121° |
| 2026-04-21 19:39 | 24.56471 | 40.38139 | 20613 ft | 434 kts | 121° |
| 2026-04-21 19:39 | 24.55111 | 40.41111 | 21042 ft | 437 kts | 121° |
| 2026-04-21 19:39 | 24.53757 | 40.44070 | 21508 ft | 439 kts | 121° |
| 2026-04-21 19:39 | 24.52374 | 40.47091 | 21960 ft | 442 kts | 121° |
| 2026-04-21 19:40 | 24.50984 | 40.50121 | 22392 ft | 446 kts | 121° |
| 2026-04-21 19:40 | 24.49582 | 40.53179 | 22865 ft | 449 kts | 121° |
| 2026-04-21 19:40 | 24.48170 | 40.56257 | 23327 ft | 453 kts | 121° |
| 2026-04-21 19:40 | 24.46928 | 40.59462 | 23697 ft | 462 kts | 110° |
| 2026-04-21 19:41 | 24.46334 | 40.62957 | 24105 ft | 469 kts | 96° |
| 2026-04-21 19:41 | 24.46441 | 40.66516 | 24484 ft | 475 kts | 82° |
| 2026-04-21 19:41 | 24.47238 | 40.70050 | 24817 ft | 480 kts | 70° |
| 2026-04-21 19:41 | 24.48411 | 40.73497 | 25200 ft | 483 kts | 68° |
| 2026-04-21 19:42 | 24.49586 | 40.76975 | 25592 ft | 487 kts | 69° |
| 2026-04-21 19:42 | 24.50664 | 40.80511 | 25979 ft | 491 kts | 71° |
| 2026-04-21 19:42 | 24.51665 | 40.84116 | 26355 ft | 495 kts | 73° |
| 2026-04-21 19:42 | 24.52622 | 40.87763 | 26730 ft | 498 kts | 73° |
| 2026-04-21 19:43 | 24.53246 | 40.90195 | 26984 ft | 501 kts | 73° |
| 2026-04-21 19:43 | 24.54506 | 40.95150 | 27482 ft | 506 kts | 74° |
| 2026-04-21 19:43 | 24.55133 | 40.97621 | 27740 ft | 508 kts | 74° |
| 2026-04-21 19:43 | 24.56085 | 41.01370 | 28109 ft | 512 kts | 74° |
| 2026-04-21 19:44 | 24.57046 | 41.05153 | 28479 ft | 515 kts | 74° |
| 2026-04-21 19:44 | 24.58013 | 41.08957 | 28835 ft | 519 kts | 74° |
| 2026-04-21 19:44 | 24.58987 | 41.12794 | 29154 ft | 523 kts | 74° |
| 2026-04-21 19:44 | 24.59968 | 41.16661 | 29522 ft | 526 kts | 74° |
| 2026-04-21 19:45 | 24.60937 | 41.20492 | 29850 ft | 530 kts | 74° |
| 2026-04-21 19:45 | 24.62262 | 41.25739 | 30267 ft | 534 kts | 74° |
| 2026-04-21 19:45 | 24.62920 | 41.28347 | 30477 ft | 536 kts | 74° |
| 2026-04-21 19:45 | 24.63919 | 41.32313 | 30793 ft | 540 kts | 73° |
| 2026-04-21 19:46 | 24.64923 | 41.36299 | 31093 ft | 543 kts | 73° |
| 2026-04-21 19:46 | 24.65933 | 41.40322 | 31408 ft | 546 kts | 73° |
| 2026-04-21 19:46 | 24.66947 | 41.44357 | 31703 ft | 549 kts | 73° |
| 2026-04-21 19:46 | 24.67965 | 41.48415 | 32010 ft | 553 kts | 73° |
| 2026-04-21 19:47 | 24.68989 | 41.52504 | 32259 ft | 557 kts | 73° |
| 2026-04-21 19:47 | 24.70017 | 41.56615 | 32512 ft | 559 kts | 73° |
| 2026-04-21 19:47 | 24.71049 | 41.60744 | 32769 ft | 561 kts | 73° |
| 2026-04-21 19:47 | 24.72084 | 41.64892 | 32971 ft | 564 kts | 73° |
| 2026-04-21 19:48 | 24.73122 | 41.69057 | 33151 ft | 566 kts | 73° |
| 2026-04-21 19:48 | 24.74164 | 41.73240 | 33324 ft | 568 kts | 73° |
| 2026-04-21 19:48 | 24.75207 | 41.77435 | 33504 ft | 569 kts | 73° |
| 2026-04-21 19:48 | 24.76248 | 41.81627 | 33715 ft | 569 kts | 73° |
| 2026-04-21 19:49 | 24.77276 | 41.85774 | 33906 ft | 569 kts | 73° |
| 2026-04-21 19:49 | 24.78330 | 41.90029 | 34108 ft | 569 kts | 72° |
| 2026-04-21 19:49 | 24.79355 | 41.94178 | 34295 ft | 569 kts | 72° |
| 2026-04-21 19:49 | 24.80394 | 41.98382 | 34469 ft | 569 kts | 72° |
| 2026-04-21 19:50 | 24.81434 | 42.02595 | 34650 ft | 570 kts | 72° |
| 2026-04-21 19:50 | 24.82472 | 42.06805 | 34821 ft | 570 kts | 72° |
| 2026-04-21 19:50 | 24.83511 | 42.11028 | 35002 ft | 571 kts | 72° |
| 2026-04-21 19:50 | 24.84547 | 42.15245 | 35165 ft | 571 kts | 72° |
| 2026-04-21 19:51 | 24.85584 | 42.19466 | 35338 ft | 571 kts | 72° |
| 2026-04-21 19:51 | 24.86620 | 42.23693 | 35496 ft | 572 kts | 72° |
| 2026-04-21 19:51 | 24.87656 | 42.27926 | 35700 ft | 572 kts | 72° |
| 2026-04-21 19:51 | 24.88692 | 42.32159 | 35859 ft | 573 kts | 72° |
| 2026-04-21 19:52 | 24.89726 | 42.36395 | 36030 ft | 573 kts | 72° |
| 2026-04-21 19:52 | 24.90759 | 42.40632 | 36186 ft | 574 kts | 72° |
| 2026-04-21 19:52 | 24.91795 | 42.44884 | 36349 ft | 574 kts | 72° |
| 2026-04-21 19:52 | 24.92827 | 42.49129 | 36514 ft | 574 kts | 72° |
| 2026-04-21 19:53 | 24.93861 | 42.53383 | 36684 ft | 575 kts | 72° |
| 2026-04-21 19:53 | 24.94895 | 42.57646 | 36845 ft | 575 kts | 72° |
| 2026-04-21 19:53 | 24.95928 | 42.61909 | 37000 ft | 575 kts | 72° |
| 2026-04-21 19:53 | 24.96945 | 42.66115 | 37182 ft | 575 kts | 72° |
| 2026-04-21 19:54 | 24.97976 | 42.70379 | 37348 ft | 576 kts | 72° |
| 2026-04-21 19:54 | 24.99007 | 42.74647 | 37506 ft | 577 kts | 72° |
| 2026-04-21 19:54 | 25.00039 | 42.78930 | 37672 ft | 577 kts | 72° |
| 2026-04-21 19:54 | 25.01067 | 42.83205 | 37833 ft | 577 kts | 72° |
| 2026-04-21 19:55 | 25.02096 | 42.87485 | 37994 ft | 578 kts | 72° |
| 2026-04-21 19:55 | 25.03124 | 42.91772 | 38162 ft | 578 kts | 72° |
| 2026-04-21 19:55 | 25.04151 | 42.96054 | 38308 ft | 578 kts | 72° |
| 2026-04-21 19:55 | 25.05177 | 43.00340 | 38461 ft | 578 kts | 72° |
| 2026-04-21 19:56 | 25.06202 | 43.04630 | 38629 ft | 577 kts | 72° |
| 2026-04-21 19:56 | 25.07222 | 43.08904 | 38842 ft | 576 kts | 72° |
| 2026-04-21 19:56 | 25.08239 | 43.13171 | 38891 ft | 575 kts | 72° |
| 2026-04-21 19:57 | 25.10273 | 43.21719 | 38893 ft | 575 kts | 72° |
| 2026-04-21 19:57 | 25.12300 | 43.30260 | 38897 ft | 577 kts | 72° |
| 2026-04-21 19:58 | 25.14325 | 43.38817 | 38899 ft | 582 kts | 72° |
| 2026-04-21 19:58 | 25.16368 | 43.47476 | 38901 ft | 584 kts | 72° |
| 2026-04-21 19:59 | 25.18413 | 43.56172 | 38900 ft | 585 kts | 72° |
| 2026-04-21 19:59 | 25.20454 | 43.64872 | 38892 ft | 585 kts | 72° |
| 2026-04-21 20:00 | 25.22491 | 43.73583 | 38902 ft | 585 kts | 72° |
| 2026-04-21 20:00 | 25.24526 | 43.82305 | 38922 ft | 586 kts | 72° |
| 2026-04-21 20:01 | 25.26554 | 43.91021 | 38901 ft | 585 kts | 72° |
| 2026-04-21 20:01 | 25.28573 | 43.99727 | 38896 ft | 585 kts | 72° |
| 2026-04-21 20:02 | 25.30589 | 44.08447 | 38896 ft | 584 kts | 72° |
| 2026-04-21 20:02 | 25.32584 | 44.17096 | 38897 ft | 584 kts | 72° |
| 2026-04-21 20:03 | 25.34585 | 44.25797 | 38898 ft | 583 kts | 72° |
| 2026-04-21 20:03 | 25.36580 | 44.34498 | 38898 ft | 583 kts | 72° |
| 2026-04-21 20:04 | 25.38570 | 44.43202 | 38897 ft | 583 kts | 72° |
| 2026-04-21 20:04 | 25.40553 | 44.51903 | 38898 ft | 583 kts | 72° |
| 2026-04-21 20:05 | 25.42530 | 44.60588 | 38897 ft | 583 kts | 72° |
| 2026-04-21 20:05 | 25.44495 | 44.69263 | 38900 ft | 583 kts | 72° |
| 2026-04-21 20:06 | 25.46461 | 44.77971 | 38902 ft | 583 kts | 72° |
| 2026-04-21 20:06 | 25.48424 | 44.86679 | 38903 ft | 583 kts | 72° |
| 2026-04-21 20:07 | 25.50382 | 44.95393 | 38908 ft | 583 kts | 73° |
| 2026-04-21 20:07 | 25.52336 | 45.04113 | 38906 ft | 583 kts | 73° |
| 2026-04-21 20:08 | 25.54286 | 45.12843 | 38907 ft | 583 kts | 73° |
| 2026-04-21 20:08 | 25.56230 | 45.21568 | 38915 ft | 583 kts | 73° |
| 2026-04-21 20:09 | 25.58155 | 45.30238 | 38910 ft | 583 kts | 73° |
| 2026-04-21 20:09 | 25.60086 | 45.38967 | 38918 ft | 583 kts | 73° |
| 2026-04-21 20:10 | 25.62016 | 45.47711 | 38906 ft | 584 kts | 73° |
| 2026-04-21 20:10 | 25.63938 | 45.56447 | 38920 ft | 584 kts | 73° |
| 2026-04-21 20:11 | 25.65856 | 45.65187 | 38915 ft | 583 kts | 73° |
| 2026-04-21 20:11 | 25.67775 | 45.73917 | 38917 ft | 582 kts | 72° |
| 2026-04-21 20:12 | 25.69741 | 45.82625 | 38920 ft | 582 kts | 73° |
| 2026-04-21 20:12 | 25.71655 | 45.91342 | 38920 ft | 582 kts | 73° |
| 2026-04-21 20:13 | 25.73547 | 46.00070 | 38920 ft | 581 kts | 73° |
| 2026-04-21 20:13 | 25.75428 | 46.08791 | 38920 ft | 581 kts | 73° |
| 2026-04-21 20:14 | 25.77303 | 46.17510 | 38922 ft | 580 kts | 73° |
| 2026-04-21 20:14 | 25.79168 | 46.26210 | 38925 ft | 580 kts | 73° |
| 2026-04-21 20:15 | 25.81028 | 46.34910 | 38924 ft | 579 kts | 73° |
| 2026-04-21 20:15 | 25.82881 | 46.43602 | 38928 ft | 579 kts | 73° |
| 2026-04-21 20:16 | 25.84726 | 46.52291 | 38928 ft | 578 kts | 73° |
| 2026-04-21 20:16 | 25.86567 | 46.60980 | 38930 ft | 577 kts | 74° |
| 2026-04-21 20:17 | 25.88385 | 46.69594 | 38922 ft | 576 kts | 74° |
| 2026-04-21 20:17 | 25.90181 | 46.78261 | 38933 ft | 575 kts | 73° |
| 2026-04-21 20:18 | 25.91750 | 46.85489 | 38943 ft | 575 kts | 73° |
| 2026-04-21 20:18 | 25.93912 | 46.95539 | 38926 ft | 576 kts | 73° |
| 2026-04-21 20:19 | 25.95727 | 47.04213 | 38934 ft | 575 kts | 74° |
| 2026-04-21 20:19 | 25.97523 | 47.12869 | 38934 ft | 575 kts | 74° |
| 2026-04-21 20:20 | 25.99314 | 47.21531 | 38930 ft | 574 kts | 74° |
| 2026-04-21 20:20 | 26.01099 | 47.30189 | 38927 ft | 573 kts | 74° |
| 2026-04-21 20:21 | 26.02875 | 47.38829 | 38931 ft | 573 kts | 74° |
| 2026-04-21 20:21 | 26.04636 | 47.47418 | 38920 ft | 573 kts | 75° |
| 2026-04-21 20:22 | 26.06397 | 47.56047 | 38916 ft | 572 kts | 75° |
| 2026-04-21 20:22 | 26.09034 | 47.69013 | 38912 ft | 568 kts | 75° |
| 2026-04-21 20:23 | 26.10750 | 47.77493 | 38912 ft | 558 kts | 75° |
| 2026-04-21 20:23 | 26.12446 | 47.85879 | 38906 ft | 560 kts | 75° |
| 2026-04-21 20:24 | 26.14147 | 47.94329 | 38900 ft | 559 kts | 75° |
| 2026-04-21 20:24 | 26.15844 | 48.02785 | 38902 ft | 559 kts | 75° |
| 2026-04-21 20:25 | 26.16685 | 48.06987 | 38750 ft | 554 kts | 75° |
| 2026-04-21 20:25 | 26.17521 | 48.11170 | 38228 ft | 553 kts | 75° |
| 2026-04-21 20:25 | 26.18356 | 48.15347 | 37599 ft | 551 kts | 75° |
| 2026-04-21 20:25 | 26.19184 | 48.19502 | 36901 ft | 549 kts | 75° |
| 2026-04-21 20:26 | 26.20009 | 48.23648 | 36189 ft | 546 kts | 76° |
| 2026-04-21 20:26 | 26.20828 | 48.27760 | 35577 ft | 541 kts | 76° |
| 2026-04-21 20:26 | 26.21641 | 48.31845 | 34900 ft | 539 kts | 77° |
| 2026-04-21 20:26 | 26.22449 | 48.35916 | 34205 ft | 536 kts | 77° |
| 2026-04-21 20:27 | 26.23248 | 48.39954 | 33414 ft | 533 kts | 77° |
| 2026-04-21 20:27 | 26.24046 | 48.43997 | 32296 ft | 536 kts | 77° |
| 2026-04-21 20:27 | 26.24547 | 48.46693 | 31517 ft | 538 kts | 81° |
| 2026-04-21 20:27 | 26.24750 | 48.52228 | 30508 ft | 530 kts | 96° |
| 2026-04-21 20:28 | 26.24117 | 48.56230 | 30164 ft | 521 kts | 108° |
| 2026-04-21 20:28 | 26.22871 | 48.59945 | 29985 ft | 517 kts | 119° |
| 2026-04-21 20:28 | 26.21030 | 48.63362 | 29870 ft | 512 kts | 131° |
| 2026-04-21 20:28 | 26.18695 | 48.66289 | 29867 ft | 503 kts | 142° |
| 2026-04-21 20:29 | 26.13069 | 48.70748 | 29855 ft | 495 kts | 153° |
| 2026-04-21 20:29 | 26.08235 | 48.74195 | 29865 ft | 496 kts | 153° |
| 2026-04-21 20:30 | 26.02418 | 48.78343 | 29867 ft | 496 kts | 153° |
| 2026-04-21 20:30 | 25.96605 | 48.82492 | 29867 ft | 496 kts | 153° |
| 2026-04-21 20:31 | 25.90785 | 48.86615 | 29864 ft | 496 kts | 153° |
| 2026-04-21 20:31 | 25.85449 | 48.91467 | 29862 ft | 509 kts | 135° |
| 2026-04-21 20:32 | 25.83388 | 48.94696 | 29863 ft | 515 kts | 123° |
| 2026-04-21 20:32 | 25.81875 | 48.98322 | 29860 ft | 520 kts | 112° |
| 2026-04-21 20:32 | 25.80965 | 49.02225 | 29861 ft | 527 kts | 101° |
| 2026-04-21 20:32 | 25.80412 | 49.06290 | 29859 ft | 537 kts | 99° |
| 2026-04-21 20:33 | 25.79034 | 49.14496 | 29855 ft | 545 kts | 104° |
| 2026-04-21 20:33 | 25.77199 | 49.22639 | 29857 ft | 548 kts | 106° |
| 2026-04-21 20:34 | 25.75220 | 49.30817 | 29846 ft | 549 kts | 106° |
| 2026-04-21 20:34 | 25.73232 | 49.38997 | 29848 ft | 548 kts | 106° |
| 2026-04-21 20:35 | 25.71251 | 49.47153 | 29846 ft | 547 kts | 106° |
| 2026-04-21 20:35 | 25.69266 | 49.55307 | 29846 ft | 548 kts | 106° |
| 2026-04-21 20:36 | 25.67275 | 49.63472 | 29847 ft | 549 kts | 106° |
| 2026-04-21 20:36 | 25.65276 | 49.71646 | 29845 ft | 549 kts | 106° |
| 2026-04-21 20:37 | 25.63284 | 49.79772 | 29847 ft | 551 kts | 106° |
| 2026-04-21 20:37 | 25.61268 | 49.87973 | 29843 ft | 552 kts | 106° |
| 2026-04-21 20:38 | 25.59244 | 49.96184 | 29844 ft | 552 kts | 106° |
| 2026-04-21 20:38 | 25.57216 | 50.04387 | 29839 ft | 553 kts | 106° |
| 2026-04-21 20:39 | 25.55185 | 50.12585 | 29408 ft | 547 kts | 106° |
| 2026-04-21 20:39 | 25.54179 | 50.16639 | 28416 ft | 545 kts | 106° |
| 2026-04-21 20:39 | 25.53180 | 50.20666 | 27485 ft | 538 kts | 106° |
| 2026-04-21 20:40 | 25.52194 | 50.24632 | 26895 ft | 527 kts | 107° |
| 2026-04-21 20:40 | 25.51229 | 50.28509 | 26178 ft | 518 kts | 107° |
| 2026-04-21 20:40 | 25.50274 | 50.32335 | 25395 ft | 512 kts | 107° |
| 2026-04-21 20:40 | 25.49333 | 50.36102 | 24678 ft | 505 kts | 107° |
| 2026-04-21 20:41 | 25.48410 | 50.39791 | 23953 ft | 499 kts | 107° |
| 2026-04-21 20:41 | 25.47488 | 50.43481 | 23186 ft | 493 kts | 107° |
| 2026-04-21 20:41 | 25.46580 | 50.47107 | 22395 ft | 486 kts | 108° |
| 2026-04-21 20:41 | 25.45684 | 50.50683 | 21604 ft | 479 kts | 108° |
| 2026-04-21 20:42 | 25.44802 | 50.54195 | 21089 ft | 467 kts | 108° |
| 2026-04-21 20:42 | 25.43951 | 50.57588 | 20899 ft | 447 kts | 108° |
| 2026-04-21 20:42 | 25.43126 | 50.60866 | 20851 ft | 444 kts | 108° |
| 2026-04-21 20:42 | 25.42113 | 50.64099 | 20831 ft | 444 kts | 115° |
| 2026-04-21 20:43 | 25.40977 | 50.67260 | 20705 ft | 438 kts | 115° |
| 2026-04-21 20:43 | 25.39893 | 50.70315 | 20582 ft | 425 kts | 115° |
| 2026-04-21 20:43 | 25.38839 | 50.73303 | 20434 ft | 408 kts | 114° |
| 2026-04-21 20:43 | 25.37827 | 50.76172 | 20276 ft | 391 kts | 115° |
| 2026-04-21 20:44 | 25.36858 | 50.78916 | 20127 ft | 375 kts | 115° |
| 2026-04-21 20:44 | 25.35926 | 50.81549 | 19973 ft | 360 kts | 115° |
| 2026-04-21 20:44 | 25.35030 | 50.84076 | 19846 ft | 345 kts | 115° |
| 2026-04-21 20:44 | 25.34173 | 50.86494 | 19508 ft | 334 kts | 116° |
| 2026-04-21 20:45 | 25.33326 | 50.88869 | 18950 ft | 330 kts | 116° |
| 2026-04-21 20:45 | 25.32488 | 50.91217 | 18365 ft | 328 kts | 116° |
| 2026-04-21 20:45 | 25.31656 | 50.93553 | 17824 ft | 323 kts | 116° |
| 2026-04-21 20:45 | 25.30847 | 50.95829 | 17341 ft | 314 kts | 116° |
| 2026-04-21 20:46 | 25.30053 | 50.98062 | 16753 ft | 310 kts | 116° |
| 2026-04-21 20:46 | 25.29251 | 51.00302 | 15788 ft | 318 kts | 116° |
| 2026-04-21 20:46 | 25.28419 | 51.02616 | 14763 ft | 328 kts | 116° |
| 2026-04-21 20:46 | 25.27583 | 51.04958 | 14042 ft | 326 kts | 116° |
| 2026-04-21 20:47 | 25.26957 | 51.07363 | 13329 ft | 326 kts | 104° |
| 2026-04-21 20:47 | 25.26799 | 51.09848 | 12534 ft | 327 kts | 92° |
| 2026-04-21 20:47 | 25.26866 | 51.12346 | 11758 ft | 324 kts | 92° |
| 2026-04-21 20:47 | 25.26916 | 51.14814 | 11010 ft | 320 kts | 93° |
| 2026-04-21 20:48 | 25.26953 | 51.17251 | 10392 ft | 313 kts | 93° |
| 2026-04-21 20:48 | 25.26980 | 51.19671 | 10118 ft | 317 kts | 94° |
| 2026-04-21 20:48 | 25.27005 | 51.22104 | 9940 ft | 315 kts | 94° |
| 2026-04-21 20:48 | 25.27026 | 51.24521 | 9918 ft | 314 kts | 94° |
| 2026-04-21 20:49 | 25.26791 | 51.26873 | 9917 ft | 311 kts | 107° |
| 2026-04-21 20:49 | 25.26284 | 51.29139 | 9910 ft | 291 kts | 109° |
| 2026-04-21 20:49 | 25.25831 | 51.31214 | 9913 ft | 272 kts | 109° |
| 2026-04-21 20:49 | 25.25383 | 51.33266 | 9920 ft | 275 kts | 109° |
| 2026-04-21 20:50 | 25.24937 | 51.35323 | 9917 ft | 276 kts | 109° |
| 2026-04-21 20:50 | 25.24494 | 51.37381 | 9916 ft | 275 kts | 109° |
| 2026-04-21 20:50 | 25.24053 | 51.39438 | 9917 ft | 275 kts | 109° |
| 2026-04-21 20:50 | 25.23613 | 51.41494 | 9917 ft | 275 kts | 109° |
| 2026-04-21 20:51 | 25.23173 | 51.43556 | 9916 ft | 276 kts | 109° |
| 2026-04-21 20:51 | 25.22733 | 51.45620 | 9917 ft | 275 kts | 109° |
| 2026-04-21 20:51 | 25.22137 | 51.47598 | 9904 ft | 267 kts | 126° |
| 2026-04-21 20:51 | 25.20928 | 51.49067 | 9911 ft | 254 kts | 153° |
| 2026-04-21 20:52 | 25.19367 | 51.49873 | 9851 ft | 245 kts | 165° |
| 2026-04-21 20:52 | 25.17763 | 51.50482 | 9736 ft | 243 kts | 168° |
| 2026-04-21 20:52 | 25.16166 | 51.51071 | 9648 ft | 247 kts | 167° |
| 2026-04-21 20:52 | 25.14545 | 51.51708 | 9279 ft | 247 kts | 165° |
| 2026-04-21 20:53 | 25.12940 | 51.52382 | 8946 ft | 247 kts | 163° |
| 2026-04-21 20:53 | 25.11343 | 51.53075 | 8623 ft | 246 kts | 162° |
| 2026-04-21 20:53 | 25.09754 | 51.53777 | 8286 ft | 245 kts | 162° |
| 2026-04-21 20:53 | 25.08178 | 51.54476 | 7870 ft | 242 kts | 162° |
| 2026-04-21 20:54 | 25.06624 | 51.55164 | 7298 ft | 239 kts | 161° |
| 2026-04-21 20:54 | 25.05079 | 51.55845 | 6569 ft | 240 kts | 160° |
| 2026-04-21 20:54 | 25.03530 | 51.56522 | 5870 ft | 239 kts | 159° |
| 2026-04-21 20:54 | 25.02005 | 51.57174 | 5302 ft | 231 kts | 158° |
| 2026-04-21 20:55 | 25.00553 | 51.57891 | 4666 ft | 224 kts | 144° |
| 2026-04-21 20:55 | 24.99521 | 51.59139 | 3949 ft | 219 kts | 113° |
| 2026-04-21 20:55 | 24.99226 | 51.60775 | 3641 ft | 222 kts | 85° |
| 2026-04-21 20:55 | 24.99636 | 51.62349 | 3524 ft | 214 kts | 65° |
| 2026-04-21 20:56 | 25.00253 | 51.63838 | 3475 ft | 215 kts | 66° |
| 2026-04-21 20:56 | 25.00848 | 51.65377 | 3480 ft | 218 kts | 67° |
| 2026-04-21 20:56 | 25.01420 | 51.66917 | 3478 ft | 215 kts | 68° |
| 2026-04-21 20:56 | 25.02046 | 51.68412 | 3474 ft | 218 kts | 56° |
| 2026-04-21 20:57 | 25.03255 | 51.69399 | 3397 ft | 224 kts | 20° |
| 2026-04-21 20:57 | 25.04819 | 51.69465 | 3325 ft | 230 kts | 355° |
| 2026-04-21 20:57 | 25.06341 | 51.68995 | 3227 ft | 220 kts | 345° |
| 2026-04-21 20:57 | 25.07705 | 51.68396 | 3107 ft | 202 kts | 343° |
| 2026-04-21 20:58 | 25.08990 | 51.67832 | 3042 ft | 198 kts | 345° |
| 2026-04-21 20:58 | 25.10265 | 51.67274 | 2976 ft | 196 kts | 344° |
| 2026-04-21 20:58 | 25.11528 | 51.66718 | 2816 ft | 195 kts | 344° |
| 2026-04-21 20:58 | 25.12741 | 51.66183 | 2606 ft | 187 kts | 345° |
| 2026-04-21 20:59 | 25.13948 | 51.65655 | 2392 ft | 185 kts | 345° |
| 2026-04-21 20:59 | 25.15112 | 51.65142 | 2161 ft | 176 kts | 343° |
| 2026-04-21 20:59 | 25.16245 | 51.64644 | 1940 ft | 175 kts | 343° |
| 2026-04-21 20:59 | 25.17360 | 51.64153 | 1729 ft | 172 kts | 342° |
| 2026-04-21 21:00 | 25.18466 | 51.63667 | 1504 ft | 170 kts | 341° |
| 2026-04-21 21:00 | 25.19575 | 51.63174 | 1276 ft | 169 kts | 342° |
| 2026-04-21 21:00 | 25.20652 | 51.62704 | 1053 ft | 152 kts | 341° |
| 2026-04-21 21:00 | 25.21539 | 51.62306 | 878 ft | 133 kts | 342° |
| 2026-04-21 21:01 | 25.22093 | 51.62067 | 785 ft | 125 kts | 342° |
| 2026-04-21 21:01 | 25.23177 | 51.61589 | 577 ft | 137 kts | 338° |
| 2026-04-21 21:01 | 25.24052 | 51.61208 | 432 ft | 132 kts | 336° |
| 2026-04-21 21:01 | 25.24881 | 51.60831 | 217 ft | 125 kts | 335° |
| 2026-04-21 21:02 | 25.25656 | 51.60481 | 41 ft | 125 kts | 337° |
| 2026-04-21 21:02 | 25.26388 | 51.60171 | 27 ft | 91 kts | 339° |
| 2026-04-21 21:02 | 25.26875 | 51.59956 | 28 ft | 64 kts | 338° |
| 2026-04-21 21:02 | 25.27011 | 51.59895 | 30 ft | 59 kts | 338° |
| 2026-04-21 21:03 | 25.27408 | 51.59838 | 27 ft | 10 kts | 9° |
| 2026-04-21 21:03 | 25.27412 | 51.59838 | 31 ft | 0 kts | 9° |
| 2026-04-21 21:06 | 25.27426 | 51.59842 | 30 ft | 5 kts | 13° |
| 2026-04-21 21:06 | 25.27452 | 51.59889 | 28 ft | 7 kts | 95° |
| 2026-04-21 21:07 | 25.27414 | 51.59918 | 30 ft | 8 kts | 154° |
| 2026-04-21 21:07 | 25.27352 | 51.59947 | 30 ft | 11 kts | 156° |
| 2026-04-21 21:07 | 25.27273 | 51.59983 | 32 ft | 14 kts | 159° |
| 2026-04-21 21:07 | 25.27174 | 51.60025 | 29 ft | 17 kts | 159° |
| 2026-04-21 21:08 | 25.27054 | 51.60078 | 28 ft | 20 kts | 158° |
| 2026-04-21 21:08 | 25.26917 | 51.60140 | 28 ft | 23 kts | 158° |
| 2026-04-21 21:08 | 25.26761 | 51.60208 | 28 ft | 25 kts | 159° |
| 2026-04-21 21:08 | 25.26591 | 51.60281 | 31 ft | 27 kts | 159° |
| 2026-04-21 21:09 | 25.26410 | 51.60361 | 26 ft | 29 kts | 158° |
| 2026-04-21 21:09 | 25.26219 | 51.60446 | 27 ft | 30 kts | 158° |
| 2026-04-21 21:09 | 25.26072 | 51.60512 | 26 ft | 17 kts | 155° |
| 2026-04-21 21:09 | 25.26066 | 51.60610 | 26 ft | 14 kts | 69° |
| 2026-04-21 21:10 | 25.26105 | 51.60720 | 29 ft | 16 kts | 68° |
| 2026-04-21 21:10 | 25.26150 | 51.60844 | 29 ft | 18 kts | 68° |
| 2026-04-21 21:10 | 25.26200 | 51.60978 | 28 ft | 18 kts | 68° |
| 2026-04-21 21:10 | 25.26183 | 51.61033 | 29 ft | 5 kts | 156° |
| 2026-04-21 21:11 | 25.26137 | 51.61051 | 28 ft | 8 kts | 159° |
| 2026-04-21 21:11 | 25.26119 | 51.61059 | 29 ft | 2 kts | 159° |
| 2026-04-21 21:11 | 25.26115 | 51.61060 | 31 ft | 0 kts | 159° |